createdAt,value
2023-05-08T00:02:08.326Z,98.10
2023-05-08T00:05:09.948Z,98.30
2023-05-08T00:08:11.568Z,98.20
2023-05-08T00:11:13.243Z,98.00
2023-05-08T00:14:15.692Z,98.10
2023-05-08T00:17:17.498Z,97.90
2023-05-08T00:20:23.228Z,98.00
2023-05-08T00:23:24.782Z,98.00
2023-05-08T00:26:26.448Z,98.00
2023-05-08T00:29:30.816Z,97.80
2023-05-08T00:32:32.378Z,97.90
2023-05-08T00:35:33.942Z,97.80
2023-05-08T00:38:36.736Z,97.90
2023-05-08T00:41:38.424Z,97.80
2023-05-08T00:44:41.137Z,98.10
2023-05-08T00:47:42.938Z,97.90
2023-05-08T00:50:44.819Z,98.40
2023-05-08T00:53:46.675Z,97.80
2023-05-08T00:56:50.630Z,97.80
2023-05-08T00:59:53.955Z,97.80
2023-05-08T01:02:55.744Z,97.70
2023-05-08T01:05:57.496Z,97.70
2023-05-08T01:08:59.079Z,97.60
2023-05-08T01:12:07.788Z,97.60
2023-05-08T01:15:24.361Z,97.90
2023-05-08T01:18:38.790Z,97.80
2023-05-08T01:21:50.324Z,97.90
2023-05-08T01:25:02.936Z,97.80
2023-05-08T01:28:26.150Z,97.80
2023-05-08T01:31:39.346Z,97.10
2023-05-08T01:34:54.261Z,97.00
2023-05-08T01:38:01.896Z,97.00
2023-05-08T01:41:14.461Z,97.00
2023-05-08T01:44:20.209Z,97.80
2023-05-08T01:47:26.041Z,98.00
2023-05-08T01:50:36.546Z,98.20
2023-05-08T01:53:42.635Z,97.40
2023-05-08T01:56:47.634Z,98.20
2023-05-08T01:59:52.018Z,98.20
2023-05-08T02:02:55.508Z,98.40
2023-05-08T02:05:59.238Z,98.30
2023-05-08T02:09:02.291Z,98.40
2023-05-08T02:12:06.568Z,98.40
2023-05-08T02:15:13.254Z,98.60
2023-05-08T02:18:18.642Z,98.30
2023-05-08T02:21:22.228Z,98.50
2023-05-08T02:24:24.595Z,98.50
2023-05-08T02:27:28.840Z,98.50
2023-05-08T02:30:31.275Z,98.60
2023-05-08T02:33:33.421Z,98.60
2023-05-08T02:36:37.241Z,98.60
2023-05-08T02:39:41.547Z,98.70
2023-05-08T02:42:44.307Z,98.90
2023-05-08T02:45:59.088Z,99.30
2023-05-08T02:49:07.090Z,98.80
2023-05-08T02:52:27.312Z,98.80
2023-05-08T02:55:49.353Z,98.20
2023-05-08T02:59:00.182Z,98.10
2023-05-08T03:02:16.932Z,98.90
2023-05-08T03:05:33.718Z,99.10
2023-05-08T03:08:36.936Z,99.10
2023-05-08T03:11:42.141Z,98.90
2023-05-08T03:14:55.045Z,99.20
2023-05-08T03:18:02.965Z,99.40
2023-05-08T03:21:07.218Z,99.00
2023-05-08T03:24:10.202Z,99.00
2023-05-08T03:27:13.223Z,99.10
2023-05-08T03:30:16.697Z,99.00
2023-05-08T03:33:19.294Z,98.90
2023-05-08T03:36:22.353Z,99.10
2023-05-08T03:39:26.248Z,99.10
2023-05-08T03:42:28.227Z,99.40
2023-05-08T03:45:34.425Z,99.10
2023-05-08T03:48:36.352Z,99.10
2023-05-08T03:51:41.086Z,99.00
2023-05-08T03:54:43.034Z,99.10
2023-05-08T03:57:57.084Z,99.20
2023-05-08T04:01:09.718Z,99.20
2023-05-08T04:04:18.026Z,99.20
2023-05-08T04:07:28.858Z,99.80
2023-05-08T04:10:39.938Z,99.20
2023-05-08T04:13:51.770Z,99.30
2023-05-08T04:17:00.435Z,99.30
2023-05-08T04:20:04.691Z,99.40
2023-05-08T04:23:08.801Z,99.20
2023-05-08T04:26:13.830Z,99.20
2023-05-08T04:29:17.087Z,99.50
2023-05-08T04:32:19.259Z,99.20
2023-05-08T04:35:21.058Z,99.30
2023-05-08T04:38:22.637Z,99.30
2023-05-08T04:41:24.295Z,99.20
2023-05-08T04:44:26.498Z,99.10
2023-05-08T04:47:28.227Z,99.10
2023-05-08T04:50:29.876Z,99.10
2023-05-08T04:53:34.331Z,99.20
2023-05-08T04:56:36.060Z,99.10
2023-05-08T04:59:37.742Z,99.30
2023-05-08T05:02:39.377Z,99.70
2023-05-08T05:05:41.035Z,99.00
2023-05-08T05:08:42.629Z,99.40
2023-05-08T05:11:44.490Z,99.40
2023-05-08T05:14:46.078Z,99.00
2023-05-08T05:17:47.634Z,99.30
2023-05-08T05:20:49.327Z,99.00
2023-05-08T05:23:51.015Z,99.60
2023-05-08T05:26:52.932Z,99.10
2023-05-08T05:29:54.510Z,98.90
2023-05-08T05:32:56.093Z,98.80
2023-05-08T05:35:57.714Z,98.80
2023-05-08T05:38:59.414Z,98.90
2023-05-08T05:42:01.018Z,98.90
2023-05-08T05:45:02.702Z,98.80
2023-05-08T05:48:04.839Z,98.50
2023-05-08T05:51:06.493Z,98.70
2023-05-08T05:54:08.054Z,99.00
2023-05-08T05:57:09.773Z,99.20
2023-05-08T06:00:12.156Z,98.90
2023-05-08T06:03:14.141Z,98.40
2023-05-08T06:06:15.853Z,98.50
2023-05-08T06:09:17.417Z,98.90
2023-05-08T06:12:19.425Z,98.70
2023-05-08T06:15:21.971Z,98.40
2023-05-08T06:18:23.564Z,98.30
2023-05-08T06:21:25.200Z,98.50
2023-05-08T06:24:27.689Z,98.40
2023-05-08T06:27:29.241Z,98.40
2023-05-08T06:30:30.865Z,98.40
2023-05-08T06:33:32.466Z,98.30
2023-05-08T06:36:34.019Z,98.20
2023-05-08T06:39:35.741Z,98.60
2023-05-08T06:42:37.377Z,98.00
2023-05-08T06:45:39.705Z,98.10
2023-05-08T06:48:41.273Z,98.00
2023-05-08T06:51:42.874Z,98.10
2023-05-08T06:54:44.459Z,97.90
2023-05-08T06:57:46.049Z,97.80
2023-05-08T07:00:47.627Z,97.80
2023-05-08T07:03:49.204Z,98.20
2023-05-08T07:06:51.150Z,97.90
2023-05-08T07:09:52.742Z,98.10
2023-05-08T07:12:54.396Z,97.90
2023-05-08T07:15:56.036Z,97.70
2023-05-08T07:18:57.650Z,97.30
2023-05-08T07:22:00.269Z,97.50
2023-05-08T07:25:02.076Z,96.80
2023-05-08T07:28:03.847Z,96.70
2023-05-08T07:31:07.198Z,96.40
2023-05-08T07:34:08.784Z,97.00
2023-05-08T07:37:10.681Z,96.80
2023-05-08T07:40:12.391Z,96.60
2023-05-08T07:43:14.963Z,96.50
2023-05-08T07:46:17.849Z,96.70
2023-05-08T07:49:19.470Z,96.60
2023-05-08T07:52:21.680Z,96.60
2023-05-08T07:55:23.261Z,97.00
2023-05-08T07:58:24.924Z,96.70
2023-05-08T08:01:27.319Z,96.40
2023-05-08T08:04:28.926Z,96.20
2023-05-08T08:07:32.626Z,96.10
2023-05-08T08:10:34.205Z,96.00
2023-05-08T08:13:35.763Z,96.30
2023-05-08T08:16:37.340Z,95.60
2023-05-08T08:19:38.901Z,95.60
2023-05-08T08:22:40.460Z,95.60
2023-05-08T08:25:42.363Z,96.20
2023-05-08T08:28:43.988Z,96.00
2023-05-08T08:31:45.767Z,96.10
2023-05-08T08:34:47.325Z,96.00
2023-05-08T08:37:48.882Z,96.30
2023-05-08T08:40:50.555Z,95.90
2023-05-08T08:43:52.148Z,96.10
2023-05-08T08:46:54.904Z,96.00
2023-05-08T08:50:00.460Z,95.70
2023-05-08T08:53:15.647Z,95.30
2023-05-08T08:56:17.777Z,95.10
2023-05-08T08:59:19.636Z,94.80
2023-05-08T09:02:23.339Z,94.80
2023-05-08T09:05:26.408Z,94.80
2023-05-08T09:08:28.393Z,94.50
2023-05-08T09:11:30.372Z,94.90
2023-05-08T09:14:32.165Z,94.50
2023-05-08T09:17:33.730Z,94.60
2023-05-08T09:20:35.770Z,94.80
2023-05-08T09:23:37.459Z,94.30
2023-05-08T09:26:40.998Z,94.60
2023-05-08T09:29:59.180Z,94.20
2023-05-08T09:33:02.495Z,94.40
2023-05-08T09:36:04.503Z,94.50
2023-05-08T09:39:11.515Z,94.10
2023-05-08T09:42:13.763Z,94.20
2023-05-08T09:45:28.637Z,94.40
2023-05-08T09:48:39.375Z,94.50
2023-05-08T09:51:53.686Z,94.50
2023-05-08T09:54:59.511Z,95.00
2023-05-08T09:58:01.117Z,94.50
2023-05-08T10:01:02.822Z,94.40
2023-05-08T10:04:05.865Z,94.40
2023-05-08T10:07:07.831Z,94.40
2023-05-08T10:10:09.678Z,94.80
2023-05-08T10:13:11.658Z,93.90
2023-05-08T10:16:18.408Z,94.20
2023-05-08T10:19:24.778Z,93.90
2023-05-08T10:22:28.190Z,93.60
2023-05-08T10:25:40.025Z,93.60
2023-05-08T10:28:55.076Z,93.60
2023-05-08T10:31:58.703Z,93.60
2023-05-08T10:35:00.710Z,94.40
2023-05-08T10:38:03.638Z,94.20
2023-05-08T10:41:06.292Z,93.80
2023-05-08T10:44:09.468Z,94.10
2023-05-08T10:47:16.727Z,94.30
2023-05-08T10:50:51.037Z,94.10
2023-05-08T10:53:57.066Z,92.80
2023-05-08T10:57:09.427Z,93.60
2023-05-08T11:00:11.748Z,93.40
2023-05-08T11:03:27.331Z,94.10
2023-05-08T11:06:45.605Z,93.20
2023-05-08T11:09:48.349Z,93.20
2023-05-08T11:12:51.183Z,93.00
2023-05-08T11:15:52.853Z,92.90
2023-05-08T11:19:17.041Z,92.70
2023-05-08T11:22:24.360Z,91.90
2023-05-08T11:25:43.308Z,93.10
2023-05-08T11:28:54.424Z,93.20
2023-05-08T11:31:56.276Z,92.90
2023-05-08T11:34:57.871Z,92.70
2023-05-08T11:38:19.180Z,92.80
2023-05-08T11:41:22.143Z,91.80
2023-05-08T11:44:24.757Z,92.40
2023-05-08T11:47:41.308Z,92.60
2023-05-08T11:50:44.000Z,91.20
2023-05-08T11:53:46.867Z,92.10
2023-05-08T11:56:50.568Z,92.30
2023-05-08T11:59:52.186Z,91.50
2023-05-08T12:02:53.761Z,91.80
2023-05-08T12:05:57.938Z,91.30
2023-05-08T12:09:00.726Z,91.60
2023-05-08T12:12:02.342Z,91.70
2023-05-08T12:15:09.340Z,91.30
2023-05-08T12:18:11.004Z,91.40
2023-05-08T12:21:12.704Z,91.50
2023-05-08T12:24:16.284Z,92.00
2023-05-08T12:27:17.868Z,91.60
2023-05-08T12:30:19.667Z,91.70
2023-05-08T12:33:22.233Z,91.70
2023-05-08T12:36:23.825Z,91.80
2023-05-08T12:39:25.939Z,91.30
2023-05-08T12:42:48.479Z,91.30
2023-05-08T12:45:53.979Z,91.20
2023-05-08T12:49:04.525Z,91.10
2023-05-08T12:52:08.483Z,90.70
2023-05-08T12:55:30.527Z,91.40
2023-05-08T12:58:34.476Z,91.80
2023-05-08T13:01:36.271Z,91.00
2023-05-08T13:04:38.693Z,91.00
2023-05-08T13:07:40.838Z,91.50
2023-05-08T13:10:48.458Z,91.40
2023-05-08T13:13:49.988Z,90.80
2023-05-08T13:16:51.862Z,90.80
2023-05-08T13:19:54.038Z,91.40
2023-05-08T13:22:55.595Z,90.30
2023-05-08T13:25:57.280Z,91.00
2023-05-08T13:28:58.963Z,91.10
2023-05-08T13:32:00.608Z,90.40
2023-05-08T13:35:02.311Z,90.30
2023-05-08T13:38:04.017Z,90.20
2023-05-08T13:41:05.577Z,90.10
2023-05-08T13:44:07.093Z,89.70
2023-05-08T13:47:10.043Z,89.00
2023-05-08T13:50:13.493Z,88.20
2023-05-08T13:53:15.317Z,87.30
2023-05-08T13:56:16.879Z,86.10
2023-05-08T13:59:18.509Z,86.70
2023-05-08T14:02:20.388Z,84.20
2023-05-08T14:05:22.163Z,84.90
2023-05-08T14:08:23.721Z,84.80
2023-05-08T14:11:25.375Z,86.60
2023-05-08T14:14:26.945Z,85.60
2023-05-08T14:17:28.565Z,86.40
2023-05-08T14:20:30.599Z,86.60
2023-05-08T14:23:32.608Z,85.80
2023-05-08T14:26:37.030Z,85.20
2023-05-08T14:29:39.166Z,85.70
2023-05-08T14:32:41.723Z,87.50
2023-05-08T14:35:43.828Z,86.30
2023-05-08T14:38:45.486Z,85.80
2023-05-08T14:42:05.222Z,84.60
2023-05-08T14:45:09.327Z,84.30
2023-05-08T14:48:11.209Z,82.80
2023-05-08T14:51:13.933Z,81.70
2023-05-08T14:54:15.827Z,80.60
2023-05-08T14:57:17.475Z,80.30
2023-05-08T15:00:20.610Z,82.00
2023-05-08T15:03:22.281Z,82.40
2023-05-08T15:06:25.365Z,83.40
2023-05-08T15:09:26.992Z,84.60
2023-05-08T15:12:28.785Z,84.90
2023-05-08T15:15:30.531Z,84.70
2023-05-08T15:18:32.085Z,86.20
2023-05-08T15:21:33.627Z,85.10
2023-05-08T15:24:35.175Z,84.00
2023-05-08T15:27:36.777Z,83.90
2023-05-08T15:30:38.335Z,84.40
2023-05-08T15:33:44.868Z,84.90
2023-05-08T15:36:46.921Z,84.40
2023-05-08T15:39:50.108Z,84.50
2023-05-08T15:42:51.650Z,86.40
2023-05-08T15:45:53.306Z,84.50
2023-05-08T15:48:54.873Z,85.00
2023-05-08T15:51:56.481Z,84.80
2023-05-08T15:54:58.019Z,84.90
2023-05-08T15:57:59.658Z,85.30
2023-05-08T16:01:01.304Z,86.00
2023-05-08T16:04:02.982Z,85.60
2023-05-08T16:07:04.664Z,86.00
2023-05-08T16:10:07.513Z,87.10
2023-05-08T16:13:09.680Z,85.80
2023-05-08T16:16:11.664Z,86.60
2023-05-08T16:19:14.758Z,87.30
2023-05-08T16:22:16.383Z,87.80
2023-05-08T16:25:18.539Z,87.10
2023-05-08T16:28:20.757Z,85.80
2023-05-08T16:31:22.443Z,87.40
2023-05-08T16:34:24.782Z,87.20
2023-05-08T16:37:26.404Z,86.80
2023-05-08T16:40:28.079Z,87.10
2023-05-08T16:43:29.729Z,87.00
2023-05-08T16:46:31.347Z,87.60
2023-05-08T16:49:32.963Z,87.70
2023-05-08T16:52:34.765Z,88.10
2023-05-08T16:55:36.487Z,88.90
2023-05-08T16:58:38.143Z,88.30
2023-05-08T17:01:39.743Z,88.50
2023-05-08T17:04:41.445Z,88.50
2023-05-08T17:07:43.123Z,88.70
2023-05-08T17:10:44.735Z,88.90
2023-05-08T17:13:47.332Z,89.30
2023-05-08T17:16:49.079Z,89.40
2023-05-08T17:19:50.714Z,89.20
2023-05-08T17:22:55.197Z,89.60
2023-05-08T17:25:57.925Z,89.80
2023-05-08T17:28:59.659Z,90.10
2023-05-08T17:32:01.569Z,89.90
2023-05-08T17:35:03.381Z,90.10
2023-05-08T17:38:04.977Z,90.00
2023-05-08T17:41:06.529Z,90.20
2023-05-08T17:44:08.120Z,90.40
2023-05-08T17:47:09.872Z,90.30
2023-05-08T17:50:11.682Z,90.90
2023-05-08T17:53:13.544Z,91.10
2023-05-08T17:56:20.163Z,90.70
2023-05-08T17:59:21.979Z,90.70
2023-05-08T18:02:23.661Z,91.40
2023-05-08T18:05:25.316Z,91.00
2023-05-08T18:08:26.899Z,90.90
2023-05-08T18:11:28.604Z,91.00
2023-05-08T18:14:31.754Z,91.00
2023-05-08T18:17:33.409Z,91.20
2023-05-08T18:20:35.171Z,91.40
2023-05-08T18:23:37.228Z,91.70
2023-05-08T18:26:38.773Z,91.40
2023-05-08T18:29:40.316Z,91.50
2023-05-08T18:32:41.938Z,91.50
2023-05-08T18:35:43.604Z,91.40
2023-05-08T18:38:45.197Z,91.40
2023-05-08T18:41:46.984Z,91.70
2023-05-08T18:44:48.817Z,91.50
2023-05-08T18:47:52.270Z,91.70
2023-05-08T18:50:55.803Z,92.10
2023-05-08T18:53:57.399Z,92.00
2023-05-08T18:56:58.997Z,91.90
2023-05-08T19:00:00.529Z,92.00
2023-05-08T19:03:02.347Z,92.20
2023-05-08T19:06:04.385Z,92.10
2023-05-08T19:09:06.013Z,91.90
2023-05-08T19:12:07.615Z,92.50
2023-05-08T19:15:13.221Z,92.60
2023-05-08T19:18:15.293Z,91.80
2023-05-08T19:21:16.965Z,92.10
2023-05-08T19:24:20.662Z,92.00
2023-05-08T19:27:22.374Z,92.40
2023-05-08T19:30:24.089Z,92.20
2023-05-08T19:33:25.663Z,92.10
2023-05-08T19:36:27.234Z,92.20
2023-05-08T19:39:28.831Z,92.00
2023-05-08T19:42:30.902Z,92.70
2023-05-08T19:45:32.469Z,92.40
2023-05-08T19:48:34.021Z,92.10
2023-05-08T19:51:35.650Z,92.50
2023-05-08T19:54:37.300Z,92.30
2023-05-08T19:57:38.869Z,92.50
2023-05-08T20:00:40.616Z,92.50
2023-05-08T20:03:42.187Z,92.30
2023-05-08T20:06:43.858Z,92.40
2023-05-08T20:09:45.653Z,92.90
2023-05-08T20:12:47.241Z,92.60
2023-05-08T20:15:48.818Z,92.70
2023-05-08T20:18:50.464Z,92.60
2023-05-08T20:21:51.988Z,92.70
2023-05-08T20:24:53.597Z,92.70
2023-05-08T20:27:55.236Z,92.80
2023-05-08T20:30:57.092Z,92.80
2023-05-08T20:34:01.587Z,93.40
2023-05-08T20:37:03.884Z,93.00
2023-05-08T20:40:06.052Z,92.90
2023-05-08T20:43:07.710Z,92.70
2023-05-08T20:46:10.123Z,92.80
2023-05-08T20:49:16.953Z,92.90
2023-05-08T20:52:18.536Z,92.30
2023-05-08T20:55:20.422Z,93.30
2023-05-08T20:58:22.001Z,93.00
2023-05-08T21:01:23.655Z,93.00
2023-05-08T21:04:28.577Z,93.10
2023-05-08T21:07:30.131Z,93.20
2023-05-08T21:10:31.725Z,93.20
2023-05-08T21:13:33.302Z,93.30
2023-05-08T21:16:37.137Z,93.20
2023-05-08T21:19:38.762Z,93.30
2023-05-08T21:22:40.386Z,93.40
2023-05-08T21:25:41.967Z,93.40
2023-05-08T21:28:43.496Z,93.50
2023-05-08T21:31:45.235Z,93.50
2023-05-08T21:34:46.867Z,93.60
2023-05-08T21:37:53.263Z,93.60
2023-05-08T21:40:56.063Z,93.70
2023-05-08T21:43:57.638Z,93.20
2023-05-08T21:46:59.222Z,93.70
2023-05-08T21:50:00.847Z,94.30
2023-05-08T21:53:03.063Z,93.80
2023-05-08T21:56:05.197Z,93.60
2023-05-08T21:59:07.354Z,93.30
2023-05-08T22:02:08.984Z,93.90
2023-05-08T22:05:10.786Z,94.10
2023-05-08T22:08:12.721Z,93.80
2023-05-08T22:11:14.860Z,94.00
2023-05-08T22:14:16.502Z,93.90
2023-05-08T22:17:18.100Z,93.70
2023-05-08T22:20:19.711Z,93.90
2023-05-08T22:23:21.326Z,93.90
2023-05-08T22:26:23.446Z,93.90
2023-05-08T22:29:25.103Z,93.40
2023-05-08T22:32:27.661Z,93.80
2023-05-08T22:35:29.334Z,93.80
2023-05-08T22:38:30.869Z,94.40
2023-05-08T22:41:33.770Z,94.10
2023-05-08T22:44:36.510Z,94.00
2023-05-08T22:47:39.019Z,94.00
2023-05-08T22:50:40.891Z,94.00
2023-05-08T22:53:42.445Z,94.40
2023-05-08T22:56:44.067Z,94.70
2023-05-08T22:59:45.817Z,94.10
2023-05-08T23:02:47.427Z,94.10
2023-05-08T23:05:49.206Z,94.10
2023-05-08T23:08:50.757Z,94.10
2023-05-08T23:11:52.340Z,94.00
2023-05-08T23:14:53.875Z,94.10
2023-05-08T23:17:55.575Z,94.00
2023-05-08T23:20:57.129Z,94.00
2023-05-08T23:23:58.896Z,94.10
2023-05-08T23:27:00.530Z,94.00
2023-05-08T23:30:02.110Z,94.10
2023-05-08T23:33:03.831Z,94.10
2023-05-08T23:36:06.000Z,94.10
2023-05-08T23:39:07.688Z,94.00
2023-05-08T23:42:09.386Z,94.20
2023-05-08T23:45:11.855Z,94.60
2023-05-08T23:48:13.706Z,94.30
2023-05-08T23:51:15.256Z,94.40
2023-05-08T23:54:18.058Z,94.40
2023-05-08T23:57:19.665Z,94.30
